Time;durP1;ratioP1;P1;durP2;ratioP2;P2;SDS_P1;SDS_P2;PMS_P1;PMS_P2;Temp;Humidity;BMP_temperature;BMP_pressure;BME280_temperature;BME280_humidity;BME280_pressure;Samples;Min_cycle;Max_cycle;Signal;HPM_P1;HPM_P2
2021/04/30 00:01:33;;;;;;;5.85;4.00;;;10.40;99.90;;;;;;4990513;28;20111;-75
2021/04/30 00:03:59;;;;;;;5.40;4.28;;;10.30;99.90;;;;;;4991178;28;20079;-75
2021/04/30 00:06:25;;;;;;;5.00;4.47;;;10.20;99.90;;;;;;4998080;28;20122;-75
2021/04/30 00:08:50;;;;;;;6.13;4.38;;;10.20;99.90;;;;;;4993803;28;20091;-75
2021/04/30 00:11:16;;;;;;;6.13;4.07;;;10.20;99.90;;;;;;4987745;28;20098;-75
2021/04/30 00:13:41;;;;;;;6.93;4.03;;;10.20;99.90;;;;;;4992540;28;20174;-75
2021/04/30 00:16:08;;;;;;;7.88;4.55;;;10.10;99.90;;;;;;4989157;28;20067;-75
2021/04/30 00:18:34;;;;;;;4.90;3.78;;;10.10;99.90;;;;;;4996158;28;20093;-75
2021/04/30 00:21:01;;;;;;;8.52;4.22;;;10.00;99.90;;;;;;4992796;28;20124;-75
2021/04/30 00:23:28;;;;;;;4.43;3.80;;;10.00;99.90;;;;;;4992808;28;20074;-75
2021/04/30 00:25:56;;;;;;;4.50;3.78;;;10.00;99.90;;;;;;4991432;28;20094;-75
2021/04/30 00:28:23;;;;;;;6.18;4.13;;;10.00;99.90;;;;;;4992808;28;20079;-75
2021/04/30 00:30:50;;;;;;;5.65;4.15;;;10.00;99.90;;;;;;4990585;28;20087;-75
2021/04/30 00:33:17;;;;;;;4.75;3.92;;;10.00;99.90;;;;;;4982245;28;20098;-76
2021/04/30 00:35:43;;;;;;;4.80;3.60;;;10.00;99.90;;;;;;5010926;28;20071;-75
2021/04/30 00:38:09;;;;;;;5.85;4.43;;;10.00;99.90;;;;;;4980215;28;20070;-75
2021/04/30 00:40:34;;;;;;;4.85;3.17;;;10.00;99.90;;;;;;4974451;28;20091;-75
2021/04/30 00:43:00;;;;;;;4.68;4.20;;;9.90;99.90;;;;;;4996938;28;20102;-73
2021/04/30 00:45:26;;;;;;;5.95;4.57;;;9.90;99.90;;;;;;4992034;28;20078;-73
2021/04/30 00:47:52;;;;;;;5.00;3.90;;;9.90;99.90;;;;;;4990597;28;20084;-73
2021/04/30 00:50:20;;;;;;;5.50;4.38;;;10.00;99.90;;;;;;4987778;28;20141;-74
2021/04/30 00:52:46;;;;;;;5.07;4.32;;;10.00;99.90;;;;;;4988750;28;20098;-74
2021/04/30 00:55:14;;;;;;;4.47;3.67;;;10.00;99.90;;;;;;4991267;28;20067;-73
2021/04/30 00:57:51;;;;;;;4.18;3.78;;;10.00;99.90;;;;;;5006013;28;20089;-74
2021/04/30 01:00:17;;;;;;;5.20;4.25;;;10.10;99.90;;;;;;4992257;28;20089;-73
2021/04/30 01:02:42;;;;;;;4.60;4.20;;;10.00;99.90;;;;;;5002243;28;20113;-73
2021/04/30 01:05:09;;;;;;;6.95;4.78;;;10.00;99.90;;;;;;4979984;28;20075;-74
2021/04/30 01:07:35;;;;;;;6.50;3.78;;;10.10;99.90;;;;;;4995293;28;20106;-73
2021/04/30 01:10:02;;;;;;;7.13;4.22;;;10.00;99.90;;;;;;4986368;28;20134;-74
2021/04/30 01:12:29;;;;;;;5.05;4.13;;;10.00;99.90;;;;;;4995427;28;20090;-73
2021/04/30 01:14:54;;;;;;;4.75;3.85;;;10.00;99.90;;;;;;4973779;28;20186;-73
2021/04/30 01:17:20;;;;;;;6.55;4.43;;;9.90;99.90;;;;;;4975279;28;20161;-74
2021/04/30 01:19:46;;;;;;;6.57;4.03;;;10.00;99.90;;;;;;4989729;28;20075;-76
2021/04/30 01:22:11;;;;;;;5.80;4.78;;;10.00;99.90;;;;;;4991206;28;20455;-76
2021/04/30 01:24:37;;;;;;;5.97;4.25;;;10.00;99.90;;;;;;4991085;28;20082;-76
2021/04/30 01:27:03;;;;;;;5.00;4.03;;;9.90;99.90;;;;;;4986567;28;20090;-76
2021/04/30 01:29:30;;;;;;;4.53;3.80;;;9.90;99.90;;;;;;4969472;28;20087;-76
2021/04/30 01:31:56;;;;;;;4.78;4.15;;;9.90;99.90;;;;;;4988760;28;20846;-76
2021/04/30 01:34:22;;;;;;;7.38;3.97;;;9.90;99.90;;;;;;4993963;28;20539;-76
2021/04/30 01:36:49;;;;;;;5.82;4.45;;;10.00;99.90;;;;;;4998337;28;20079;-76
2021/04/30 01:39:15;;;;;;;5.03;4.22;;;9.80;99.90;;;;;;4993792;28;20114;-76
2021/04/30 01:41:43;;;;;;;5.80;4.25;;;9.80;99.90;;;;;;4993890;28;20134;-73
2021/04/30 01:44:10;;;;;;;5.43;3.92;;;9.70;99.90;;;;;;4992457;28;20082;-73
2021/04/30 01:46:37;;;;;;;4.30;3.53;;;9.80;99.90;;;;;;4987551;28;20533;-74
2021/04/30 01:49:04;;;;;;;7.45;4.20;;;9.70;99.90;;;;;;4970242;28;20118;-73
2021/04/30 01:51:30;;;;;;;5.13;4.28;;;9.80;99.90;;;;;;4988546;28;20575;-74
2021/04/30 01:53:56;;;;;;;4.70;3.88;;;9.80;99.90;;;;;;4986742;28;20169;-72
2021/04/30 01:56:21;;;;;;;4.78;4.10;;;9.90;99.90;;;;;;4986640;28;20166;-74
2021/04/30 01:58:47;;;;;;;6.53;4.18;;;9.90;99.90;;;;;;4986212;28;20082;-74
2021/04/30 02:01:13;;;;;;;6.13;4.35;;;10.00;99.90;;;;;;4986140;28;20075;-74
2021/04/30 02:03:39;;;;;;;7.18;4.35;;;9.90;99.90;;;;;;4985523;28;20169;-74
2021/04/30 02:06:05;;;;;;;6.03;3.88;;;10.00;99.90;;;;;;4987247;28;20605;-74
2021/04/30 02:08:31;;;;;;;6.88;4.20;;;10.10;99.90;;;;;;4987684;28;20091;-74
2021/04/30 02:10:56;;;;;;;5.97;4.50;;;10.10;99.90;;;;;;4971204;28;20153;-74
2021/04/30 02:13:22;;;;;;;4.30;3.67;;;10.00;99.90;;;;;;4994518;28;20142;-73
2021/04/30 02:15:51;;;;;;;6.10;3.95;;;10.10;99.90;;;;;;4984756;28;20079;-73
2021/04/30 02:18:17;;;;;;;5.78;5.15;;;10.10;99.90;;;;;;5010483;28;20062;-73
2021/04/30 02:20:43;;;;;;;4.97;3.75;;;10.20;99.90;;;;;;4995915;28;20150;-73
2021/04/30 02:23:10;;;;;;;4.53;4.07;;;10.10;99.90;;;;;;5004988;28;20145;-74
2021/04/30 02:25:36;;;;;;;4.13;3.72;;;10.10;99.90;;;;;;4995749;28;20601;-73
2021/04/30 02:28:03;;;;;;;7.43;4.28;;;10.10;99.90;;;;;;4988436;28;20086;-73
2021/04/30 02:30:30;;;;;;;5.30;4.30;;;10.10;99.90;;;;;;4988570;28;20141;-74
2021/04/30 02:32:56;;;;;;;5.43;4.75;;;10.00;99.90;;;;;;4987437;28;20095;-74
2021/04/30 02:35:44;;;;;;;6.18;4.82;;;10.00;99.90;;;;;;4969885;28;20099;-74
2021/04/30 02:38:11;;;;;;;4.45;4.00;;;10.00;99.90;;;;;;4987197;28;20090;-74
2021/04/30 02:40:39;;;;;;;4.40;4.00;;;10.00;99.90;;;;;;4985940;28;20101;-73
2021/04/30 02:43:07;;;;;;;5.70;4.72;;;10.00;99.90;;;;;;4970469;28;20095;-74
2021/04/30 02:45:33;;;;;;;7.80;4.80;;;10.10;99.90;;;;;;4994495;28;20078;-73
2021/04/30 02:47:59;;;;;;;5.15;4.00;;;10.10;99.90;;;;;;4996842;28;20114;-74
2021/04/30 02:50:28;;;;;;;7.13;4.03;;;10.00;99.90;;;;;;4987979;28;20145;-73
2021/04/30 02:52:54;;;;;;;4.68;4.22;;;9.90;99.90;;;;;;4988407;28;20094;-74
2021/04/30 02:55:23;;;;;;;7.60;4.47;;;9.80;99.90;;;;;;4992290;28;20098;-73
2021/04/30 02:57:51;;;;;;;5.32;4.20;;;9.70;99.90;;;;;;4990881;28;20083;-74
2021/04/30 03:00:17;;;;;;;6.65;4.10;;;9.70;99.90;;;;;;4991379;28;20450;-74
2021/04/30 03:02:42;;;;;;;7.18;4.22;;;9.80;99.90;;;;;;4992027;28;20091;-74
2021/04/30 03:05:09;;;;;;;4.70;4.30;;;9.90;99.90;;;;;;4988261;28;20217;-73
2021/04/30 03:07:34;;;;;;;4.78;4.30;;;9.90;99.90;;;;;;4972192;28;20648;-74
2021/04/30 03:10:00;;;;;;;6.57;4.82;;;9.90;99.90;;;;;;4989839;28;20098;-74
2021/04/30 03:12:25;;;;;;;4.93;3.88;;;9.90;99.90;;;;;;4991678;28;20095;-73
2021/04/30 03:14:51;;;;;;;6.88;4.53;;;9.80;99.90;;;;;;4991107;28;20202;-73
2021/04/30 03:17:16;;;;;;;6.22;5.63;;;9.80;99.90;;;;;;5011379;28;20075;-73
2021/04/30 03:19:42;;;;;;;5.13;4.63;;;9.80;99.90;;;;;;4990110;28;20082;-73
2021/04/30 03:22:07;;;;;;;6.40;4.90;;;9.80;99.90;;;;;;4989495;28;20087;-73
2021/04/30 03:24:33;;;;;;;8.13;5.05;;;9.90;99.90;;;;;;4995495;28;20137;-73
2021/04/30 03:26:59;;;;;;;4.53;4.13;;;9.90;99.90;;;;;;4984811;28;20091;-73
2021/04/30 03:29:24;;;;;;;8.35;5.32;;;10.00;99.90;;;;;;5009178;28;20562;-73
2021/04/30 03:31:50;;;;;;;4.93;4.43;;;9.90;99.90;;;;;;5006639;28;20121;-73
2021/04/30 03:34:15;;;;;;;4.43;4.03;;;9.90;99.90;;;;;;5004852;28;20081;-73
2021/04/30 03:36:41;;;;;;;4.70;3.80;;;9.90;99.90;;;;;;5002558;28;20125;-73
2021/04/30 03:39:07;;;;;;;5.30;3.90;;;9.90;99.90;;;;;;4995577;28;20110;-74
2021/04/30 03:41:34;;;;;;;7.00;5.03;;;9.90;99.90;;;;;;4992415;28;20101;-74
2021/04/30 03:44:00;;;;;;;6.22;4.70;;;9.80;99.90;;;;;;4993853;28;20419;-73
2021/04/30 03:46:25;;;;;;;5.03;4.47;;;9.80;99.90;;;;;;4991627;28;20106;-74
2021/04/30 03:48:51;;;;;;;6.13;4.70;;;9.80;99.90;;;;;;4991549;28;20099;-74
2021/04/30 03:51:17;;;;;;;7.05;4.78;;;9.80;99.90;;;;;;4991937;28;20099;-73
2021/04/30 03:53:42;;;;;;;5.57;4.45;;;9.90;99.90;;;;;;4985599;28;20071;-74
2021/04/30 03:56:08;;;;;;;5.65;4.45;;;9.90;99.90;;;;;;4992741;28;20098;-73
2021/04/30 03:58:33;;;;;;;5.28;4.30;;;9.90;99.90;;;;;;4974899;28;20079;-73
2021/04/30 04:00:59;;;;;;;5.28;4.78;;;9.90;99.90;;;;;;4992692;28;20120;-74
2021/04/30 04:03:24;;;;;;;5.38;4.28;;;9.90;99.90;;;;;;4983693;28;20182;-73
2021/04/30 04:05:51;;;;;;;7.38;4.75;;;9.80;99.90;;;;;;4989094;28;20110;-74
2021/04/30 04:08:17;;;;;;;5.63;4.40;;;9.80;99.90;;;;;;4989781;28;21383;-74
2021/04/30 04:10:42;;;;;;;7.07;4.97;;;9.70;99.90;;;;;;4994321;28;20548;-73
2021/04/30 04:13:22;;;;;;;5.95;4.55;;;9.80;99.90;;;;;;4977656;28;20726;-73
2021/04/30 04:15:48;;;;;;;5.22;4.72;;;9.80;99.90;;;;;;4974287;28;20082;-74
2021/04/30 04:18:15;;;;;;;5.00;4.43;;;9.70;99.90;;;;;;4978333;28;20155;-73
2021/04/30 04:20:41;;;;;;;5.40;4.70;;;9.70;99.90;;;;;;4993719;28;20680;-73
2021/04/30 04:23:08;;;;;;;5.97;5.20;;;9.80;99.90;;;;;;4987102;28;20087;-74
2021/04/30 04:25:35;;;;;;;7.47;5.00;;;9.80;99.90;;;;;;4989733;28;20087;-73
2021/04/30 04:28:00;;;;;;;7.05;5.75;;;9.90;99.90;;;;;;4973294;28;20442;-73
2021/04/30 04:30:26;;;;;;;7.85;5.93;;;9.90;99.90;;;;;;4971431;28;20101;-74
2021/04/30 04:32:52;;;;;;;5.20;4.35;;;9.80;99.90;;;;;;4989516;28;20098;-74
2021/04/30 04:35:20;;;;;;;6.10;4.70;;;9.80;99.90;;;;;;5000811;28;20083;-73
2021/04/30 04:37:46;;;;;;;5.93;5.13;;;9.80;99.90;;;;;;4974742;28;20082;-73
2021/04/30 04:40:15;;;;;;;7.30;5.75;;;9.80;99.90;;;;;;4981484;28;20083;-74
2021/04/30 04:42:41;;;;;;;8.07;5.63;;;9.80;99.90;;;;;;5001517;28;20098;-73
2021/04/30 04:45:07;;;;;;;6.85;5.55;;;9.90;99.90;;;;;;4998333;28;20093;-73
2021/04/30 04:47:33;;;;;;;5.97;5.35;;;9.90;99.90;;;;;;5006046;28;20078;-73
2021/04/30 04:49:59;;;;;;;6.38;5.38;;;9.90;99.90;;;;;;4979751;28;20094;-74
2021/04/30 04:52:24;;;;;;;5.72;4.82;;;10.00;99.90;;;;;;4990295;28;20162;-73
2021/04/30 04:54:50;;;;;;;7.80;5.82;;;10.00;99.90;;;;;;4989857;28;20078;-74
2021/04/30 04:57:16;;;;;;;6.88;5.40;;;10.00;99.90;;;;;;4989849;28;20075;-72
2021/04/30 04:59:42;;;;;;;7.65;5.85;;;10.00;99.90;;;;;;4987331;28;20102;-74
2021/04/30 05:02:07;;;;;;;7.55;5.55;;;10.00;99.90;;;;;;4995660;28;20094;-73
2021/04/30 05:04:33;;;;;;;6.20;5.40;;;10.00;99.90;;;;;;4990038;28;20155;-73
2021/04/30 05:06:58;;;;;;;6.63;5.60;;;9.90;99.90;;;;;;4990690;28;20071;-73
2021/04/30 05:09:24;;;;;;;7.35;5.35;;;9.90;99.90;;;;;;4990966;28;20099;-74
2021/04/30 05:11:50;;;;;;;7.30;5.97;;;10.00;99.90;;;;;;4989530;28;20095;-74
2021/04/30 05:14:16;;;;;;;8.70;6.30;;;10.00;99.90;;;;;;4986441;28;20153;-74
2021/04/30 05:16:41;;;;;;;7.65;5.68;;;10.00;99.90;;;;;;4992006;28;20104;-73
2021/04/30 05:19:07;;;;;;;6.70;5.13;;;10.00;99.90;;;;;;4990028;28;20427;-73
2021/04/30 05:21:34;;;;;;;5.60;4.97;;;10.00;99.90;;;;;;4987319;28;20173;-73
2021/04/30 05:24:00;;;;;;;8.27;6.80;;;10.00;99.90;;;;;;4989311;28;20546;-73
2021/04/30 05:26:29;;;;;;;7.72;5.72;;;10.10;99.90;;;;;;4988482;28;20086;-73
2021/04/30 05:28:58;;;;;;;10.20;7.03;;;10.10;99.90;;;;;;4988209;28;20102;-73
2021/04/30 05:31:24;;;;;;;6.93;5.63;;;10.10;99.90;;;;;;4986248;28;20168;-71
2021/04/30 05:33:50;;;;;;;7.15;6.13;;;10.20;99.90;;;;;;4991964;28;20561;-74
2021/04/30 05:36:16;;;;;;;7.45;5.22;;;10.20;99.90;;;;;;4985593;28;20083;-76
2021/04/30 05:38:41;;;;;;;7.82;6.40;;;10.30;99.90;;;;;;4993031;28;20105;-76
2021/04/30 05:41:07;;;;;;;7.97;6.90;;;10.20;99.90;;;;;;4987159;28;20509;-75
2021/04/30 05:43:32;;;;;;;10.20;6.70;;;10.10;99.90;;;;;;4970105;28;20097;-75
2021/04/30 05:45:58;;;;;;;7.82;6.53;;;10.10;99.90;;;;;;4986719;28;20602;-75
2021/04/30 05:48:24;;;;;;;7.82;7.03;;;10.10;99.90;;;;;;4988067;28;20071;-75
2021/04/30 05:50:49;;;;;;;9.80;7.35;;;10.10;99.90;;;;;;4987631;28;20093;-74
2021/04/30 05:53:15;;;;;;;8.07;6.93;;;10.10;99.90;;;;;;4988073;28;20586;-75
2021/04/30 05:55:40;;;;;;;9.38;7.35;;;10.10;99.90;;;;;;4986716;28;20078;-75
2021/04/30 05:58:06;;;;;;;10.25;7.57;;;10.20;99.90;;;;;;4988393;28;20591;-75
2021/04/30 06:00:31;;;;;;;12.25;8.45;;;10.20;99.90;;;;;;4987710;28;20564;-75
2021/04/30 06:02:57;;;;;;;10.60;8.82;;;10.20;99.90;;;;;;4986995;28;20087;-74
2021/04/30 06:05:23;;;;;;;9.10;7.82;;;10.20;99.90;;;;;;4970114;28;20086;-74
2021/04/30 06:07:48;;;;;;;10.48;8.93;;;10.20;99.90;;;;;;4988472;28;20083;-75
2021/04/30 06:10:14;;;;;;;14.07;10.98;;;10.20;99.90;;;;;;4984900;28;20731;-75
2021/04/30 06:12:41;;;;;;;11.23;9.35;;;10.30;99.90;;;;;;4995810;28;20091;-74
2021/04/30 06:15:07;;;;;;;11.25;8.85;;;10.20;99.90;;;;;;4989453;28;20081;-74
2021/04/30 06:17:33;;;;;;;9.93;8.93;;;10.20;99.90;;;;;;4990276;28;20078;-75
2021/04/30 06:19:58;;;;;;;13.43;9.80;;;10.30;99.90;;;;;;4994805;28;20079;-74
2021/04/30 06:22:24;;;;;;;10.23;8.98;;;10.30;99.90;;;;;;4989299;28;20198;-75
2021/04/30 06:24:51;;;;;;;11.70;9.60;;;10.30;99.90;;;;;;4988507;28;20070;-74
2021/04/30 06:27:17;;;;;;;10.90;8.82;;;10.20;99.90;;;;;;4984621;28;20142;-75
2021/04/30 06:29:42;;;;;;;12.35;9.10;;;10.30;99.90;;;;;;4989694;28;20121;-75
2021/04/30 06:32:08;;;;;;;10.40;9.23;;;10.20;99.90;;;;;;4989426;28;20490;-76
2021/04/30 06:34:34;;;;;;;10.68;9.15;;;10.30;99.90;;;;;;4981798;28;20156;-75
2021/04/30 06:36:59;;;;;;;14.02;10.30;;;10.30;99.90;;;;;;4991809;28;20548;-75
2021/04/30 06:39:25;;;;;;;15.35;11.10;;;10.30;99.90;;;;;;4990359;28;20093;-74
2021/04/30 06:41:51;;;;;;;13.40;11.15;;;10.30;99.90;;;;;;4990229;28;20181;-75
2021/04/30 06:44:17;;;;;;;14.80;11.18;;;10.40;99.90;;;;;;4991237;28;20082;-74
2021/04/30 06:46:43;;;;;;;14.57;11.65;;;10.40;99.90;;;;;;4987959;28;20434;-75
2021/04/30 06:49:09;;;;;;;17.30;13.15;;;10.40;99.90;;;;;;4990698;28;20145;-75
2021/04/30 06:51:34;;;;;;;18.98;13.20;;;10.40;99.90;;;;;;4992033;28;20102;-75
2021/04/30 06:54:01;;;;;;;17.95;13.43;;;10.30;99.90;;;;;;4991724;28;20695;-74
2021/04/30 06:56:29;;;;;;;18.83;13.60;;;10.40;99.90;;;;;;4990661;28;20117;-75
2021/04/30 06:58:56;;;;;;;21.33;13.48;;;10.30;99.90;;;;;;4992107;28;20501;-75
2021/04/30 07:01:22;;;;;;;17.45;13.88;;;10.30;99.90;;;;;;4991732;28;20181;-75
2021/04/30 07:03:48;;;;;;;17.38;13.90;;;10.40;99.90;;;;;;4991331;28;20105;-76
2021/04/30 07:06:19;;;;;;;16.67;12.73;;;10.50;99.90;;;;;;4991620;28;20583;-75
2021/04/30 07:08:45;;;;;;;19.85;14.23;;;10.40;99.90;;;;;;5000850;28;20197;-74
2021/04/30 07:11:10;;;;;;;18.42;14.18;;;10.50;99.90;;;;;;4991147;28;20157;-75
2021/04/30 07:13:36;;;;;;;16.95;13.88;;;10.50;99.90;;;;;;4988307;28;20454;-74
2021/04/30 07:16:03;;;;;;;17.70;13.57;;;10.60;99.90;;;;;;4990800;28;20063;-74
2021/04/30 07:18:29;;;;;;;17.35;12.98;;;10.60;99.90;;;;;;4990417;28;20083;-75
2021/04/30 07:20:54;;;;;;;15.00;12.40;;;10.60;99.90;;;;;;4983149;28;20133;-84
2021/04/30 07:23:20;;;;;;;17.50;14.60;;;10.60;99.90;;;;;;4968025;28;20182;-83
2021/04/30 07:25:46;;;;;;;16.75;13.52;;;10.60;99.90;;;;;;4982204;28;20083;-75
2021/04/30 07:28:11;;;;;;;15.32;12.73;;;10.60;99.90;;;;;;4990816;28;20083;-75
2021/04/30 07:30:37;;;;;;;20.35;14.20;;;10.70;99.90;;;;;;4991890;28;20091;-75
2021/04/30 07:33:03;;;;;;;17.60;14.45;;;10.80;99.90;;;;;;4991088;28;20182;-76
2021/04/30 07:35:29;;;;;;;16.02;12.75;;;10.80;99.90;;;;;;4989159;28;20166;-77
2021/04/30 07:37:54;;;;;;;21.25;13.55;;;10.70;99.90;;;;;;4991000;28;20454;-76
2021/04/30 07:40:20;;;;;;;15.98;13.48;;;10.80;99.90;;;;;;4990105;28;20089;-76
2021/04/30 07:42:45;;;;;;;18.88;13.80;;;10.70;99.90;;;;;;4974018;28;20086;-76
2021/04/30 07:45:12;;;;;;;16.80;13.85;;;10.80;99.90;;;;;;4989780;28;20155;-76
2021/04/30 07:47:37;;;;;;;15.48;13.40;;;10.80;99.90;;;;;;4991666;28;20144;-75
2021/04/30 07:50:04;;;;;;;17.50;14.70;;;10.80;99.90;;;;;;4990653;28;20095;-76
2021/04/30 07:52:30;;;;;;;18.20;14.25;;;10.80;99.90;;;;;;4988706;28;20125;-76
2021/04/30 07:54:56;;;;;;;19.13;13.90;;;10.90;99.90;;;;;;4988698;28;20150;-76
2021/04/30 07:57:21;;;;;;;18.90;14.98;;;10.90;99.90;;;;;;4989366;28;20157;-76
2021/04/30 07:59:47;;;;;;;17.92;15.05;;;11.00;99.90;;;;;;4987857;28;21165;-76
2021/04/30 08:02:12;;;;;;;17.30;14.73;;;11.10;99.90;;;;;;4989679;28;20605;-77
2021/04/30 08:04:38;;;;;;;22.15;14.88;;;11.10;99.90;;;;;;4990066;28;20538;-76
2021/04/30 08:07:03;;;;;;;18.17;14.18;;;11.10;99.90;;;;;;4988850;28;20428;-76
2021/04/30 08:09:29;;;;;;;18.55;14.90;;;11.20;99.90;;;;;;4990130;28;20138;-74
2021/04/30 08:11:55;;;;;;;19.55;15.43;;;11.20;99.90;;;;;;4990814;28;20090;-76
2021/04/30 08:14:29;;;;;;;20.27;15.35;;;11.30;99.90;;;;;;4992474;28;20075;-74
2021/04/30 08:16:55;;;;;;;19.73;15.20;;;11.30;99.90;;;;;;4974274;28;20089;-76
2021/04/30 08:19:20;;;;;;;16.60;12.88;;;11.60;99.90;;;;;;4975038;28;20615;-76
2021/04/30 08:21:46;;;;;;;18.45;15.30;;;11.70;99.90;;;;;;4991709;28;20153;-75
2021/04/30 08:24:12;;;;;;;16.25;14.07;;;11.80;99.90;;;;;;4991914;28;20090;-77
2021/04/30 08:26:37;;;;;;;16.45;14.30;;;11.80;99.90;;;;;;4991205;28;20078;-75
2021/04/30 08:29:03;;;;;;;17.98;13.50;;;11.80;99.90;;;;;;4991708;28;20090;-75
2021/04/30 08:31:29;;;;;;;17.95;14.45;;;11.80;99.90;;;;;;4990672;28;20102;-75
2021/04/30 08:33:54;;;;;;;17.33;12.13;;;11.80;99.90;;;;;;4991052;28;20329;-75
2021/04/30 08:36:21;;;;;;;18.77;12.63;;;11.70;99.90;;;;;;4972183;28;20094;-75
2021/04/30 08:38:47;;;;;;;16.35;12.95;;;11.80;99.90;;;;;;4996321;28;20472;-75
2021/04/30 08:41:15;;;;;;;16.90;13.40;;;12.00;99.90;;;;;;4991135;28;20082;-75
2021/04/30 08:43:41;;;;;;;15.57;12.35;;;11.90;99.90;;;;;;4990789;28;20090;-75
2021/04/30 08:46:10;;;;;;;14.07;12.50;;;11.90;99.90;;;;;;4994715;28;20079;-76
2021/04/30 08:48:36;;;;;;;16.77;11.40;;;12.00;99.90;;;;;;4995628;28;20085;-76
2021/04/30 08:51:01;;;;;;;12.70;10.60;;;12.00;99.90;;;;;;4989466;28;20101;-75
2021/04/30 08:53:27;;;;;;;16.05;11.93;;;12.00;99.90;;;;;;4990742;28;20446;-76
2021/04/30 08:55:54;;;;;;;15.48;11.95;;;12.20;99.90;;;;;;4998990;28;20066;-75
2021/04/30 08:58:26;;;;;;;12.32;9.43;;;12.20;99.90;;;;;;4993289;28;20083;-76
2021/04/30 09:00:53;;;;;;;16.17;11.00;;;12.20;99.90;;;;;;4990185;28;20559;-76
2021/04/30 09:03:19;;;;;;;13.88;10.85;;;12.20;99.90;;;;;;4989976;28;20098;-76
2021/04/30 09:05:46;;;;;;;14.20;10.93;;;12.20;99.90;;;;;;4989038;28;20074;-75
2021/04/30 09:08:12;;;;;;;12.43;9.13;;;12.30;99.90;;;;;;4991739;28;20149;-75
2021/04/30 09:10:47;;;;;;;15.32;10.20;;;12.40;99.90;;;;;;4992021;28;20094;-75
2021/04/30 09:13:16;;;;;;;11.38;9.73;;;12.50;99.90;;;;;;5007142;28;20801;-74
2021/04/30 09:15:42;;;;;;;14.27;10.20;;;12.50;99.90;;;;;;5006124;28;20070;-75
2021/04/30 09:18:19;;;;;;;13.85;9.30;;;12.50;99.90;;;;;;5010650;28;20515;-75
2021/04/30 09:20:47;;;;;;;13.45;10.02;;;12.70;99.90;;;;;;5003219;28;20075;-75
2021/04/30 09:23:44;;;;;;;16.50;10.73;;;12.70;99.90;;;;;;4990963;28;20094;-76
2021/04/30 09:26:26;;;;;;;13.43;11.07;;;12.70;99.90;;;;;;4972493;28;20125;-74
2021/04/30 09:29:05;;;;;;;12.15;10.18;;;12.60;99.90;;;;;;4972888;28;20075;-75
2021/04/30 09:31:39;;;;;;;13.95;9.98;;;12.60;99.90;;;;;;4989667;28;20506;-76
2021/04/30 09:34:35;;;;;;;11.85;9.25;;;13.00;99.90;;;;;;4999171;28;20071;-75
2021/04/30 09:37:08;;;;;;;11.73;8.40;;;13.20;99.90;;;;;;4978040;28;20078;-75
2021/04/30 09:39:55;;;;;;;10.32;8.93;;;13.20;99.90;;;;;;4995122;28;20091;-75
2021/04/30 09:42:29;;;;;;;10.10;8.50;;;13.00;99.90;;;;;;4987626;28;20102;-75
2021/04/30 09:45:05;;;;;;;10.90;9.80;;;13.20;99.90;;;;;;4985351;28;20508;-75
2021/04/30 09:47:35;;;;;;;11.52;9.13;;;13.20;99.90;;;;;;4987788;28;20075;-75
2021/04/30 09:50:06;;;;;;;10.73;8.63;;;13.20;99.90;;;;;;4992022;28;20110;-75
2021/04/30 09:52:31;;;;;;;12.65;9.88;;;13.50;99.90;;;;;;4997472;28;20255;-75
2021/04/30 09:55:01;;;;;;;11.20;9.80;;;13.50;99.90;;;;;;4991885;28;20292;-75
2021/04/30 09:57:28;;;;;;;10.75;8.07;;;13.40;99.90;;;;;;4991093;28;20470;-76
2021/04/30 10:00:00;;;;;;;10.05;7.90;;;13.50;99.90;;;;;;4990663;28;20071;-74
2021/04/30 10:02:28;;;;;;;11.57;7.85;;;13.50;99.90;;;;;;4990426;28;20099;-73
2021/04/30 10:04:56;;;;;;;10.50;9.40;;;13.60;99.90;;;;;;5002056;28;20591;-74
2021/04/30 10:07:33;;;;;;;11.20;8.88;;;13.70;99.90;;;;;;5000971;28;20609;-77
2021/04/30 10:10:15;;;;;;;8.75;7.85;;;13.90;99.90;;;;;;4986691;28;20101;-74
2021/04/30 10:12:45;;;;;;;8.13;7.30;;;14.00;99.90;;;;;;4990163;28;20443;-73
2021/04/30 10:15:19;;;;;;;9.30;7.07;;;13.90;99.90;;;;;;4993198;28;20605;-73
2021/04/30 10:17:45;;;;;;;11.10;7.00;;;14.00;99.90;;;;;;4994852;28;20835;-75
2021/04/30 10:20:12;;;;;;;9.30;7.40;;;14.30;99.90;;;;;;4997602;28;20082;-75
2021/04/30 10:22:40;;;;;;;8.93;7.32;;;14.20;99.90;;;;;;4995108;28;20156;-76
2021/04/30 10:25:10;;;;;;;7.75;6.78;;;14.20;99.90;;;;;;4998852;28;20079;-75
2021/04/30 10:27:38;;;;;;;6.20;5.60;;;14.20;99.90;;;;;;4980181;28;20155;-76
2021/04/30 10:30:09;;;;;;;9.43;6.45;;;14.50;99.90;;;;;;4996690;28;20086;-77
2021/04/30 10:32:40;;;;;;;6.45;5.72;;;14.80;99.90;;;;;;4992512;28;20109;-77
2021/04/30 10:35:08;;;;;;;9.20;6.53;;;14.80;99.90;;;;;;5009397;28;20082;-74
2021/04/30 10:37:39;;;;;;;7.18;6.47;;;15.10;99.90;;;;;;5003112;28;20109;-77
2021/04/30 10:40:05;;;;;;;7.43;5.93;;;15.00;99.90;;;;;;4992301;28;20141;-74
2021/04/30 10:42:45;;;;;;;7.03;5.97;;;14.80;99.90;;;;;;4996394;28;20157;-78
2021/04/30 10:45:16;;;;;;;6.45;5.68;;;14.60;99.90;;;;;;4992701;28;20464;-75
2021/04/30 10:48:01;;;;;;;7.45;6.75;;;14.70;99.90;;;;;;4983284;28;20074;-73
2021/04/30 10:50:27;;;;;;;8.65;6.47;;;15.20;99.90;;;;;;5001754;28;20094;-75
2021/04/30 10:52:54;;;;;;;8.48;7.68;;;15.30;99.90;;;;;;4994955;28;20222;-75
2021/04/30 10:55:19;;;;;;;7.90;7.10;;;15.20;99.90;;;;;;5011709;28;20610;-75
2021/04/30 10:57:55;;;;;;;15.23;7.90;;;15.40;99.90;;;;;;4999195;28;20182;-76
2021/04/30 11:00:36;;;;;;;8.63;7.72;;;15.60;99.90;;;;;;4989379;28;20137;-76
2021/04/30 11:03:17;;;;;;;8.43;7.55;;;15.40;99.90;;;;;;4990422;28;20087;-76
2021/04/30 11:05:58;;;;;;;7.93;7.18;;;15.40;99.90;;;;;;4999179;28;20093;-75
2021/04/30 11:08:45;;;;;;;8.32;7.45;;;15.70;99.90;;;;;;4994953;28;20493;-75
2021/04/30 11:11:11;;;;;;;8.35;7.45;;;15.80;99.90;;;;;;4991660;28;20458;-77
2021/04/30 11:13:37;;;;;;;9.07;8.18;;;15.50;99.90;;;;;;4992121;28;20078;-77
2021/04/30 11:16:02;;;;;;;8.25;7.45;;;15.80;99.90;;;;;;4990718;28;20130;-76
2021/04/30 11:18:30;;;;;;;8.30;7.05;;;15.70;99.90;;;;;;4991589;28;20082;-77
2021/04/30 11:21:12;;;;;;;8.25;7.20;;;15.50;99.90;;;;;;4995962;28;20125;-80
2021/04/30 11:23:46;;;;;;;9.38;7.57;;;15.60;99.90;;;;;;4989503;28;20111;-78
2021/04/30 11:26:16;;;;;;;8.30;7.32;;;15.80;99.90;;;;;;4995272;28;20075;-76
2021/04/30 11:28:41;;;;;;;8.57;7.63;;;15.80;99.90;;;;;;4992446;28;20101;-76
2021/04/30 11:31:08;;;;;;;9.32;8.13;;;15.90;99.90;;;;;;4990668;28;20571;-76
2021/04/30 11:33:37;;;;;;;8.85;7.97;;;15.60;99.90;;;;;;4990072;28;20081;-76
2021/04/30 11:36:04;;;;;;;8.70;7.90;;;15.70;99.90;;;;;;4999140;28;20170;-74
2021/04/30 11:38:34;;;;;;;8.60;7.80;;;16.00;99.90;;;;;;4989292;28;20075;-76
2021/04/30 11:41:00;;;;;;;8.35;6.22;;;15.80;99.90;;;;;;4991982;28;20083;-75
2021/04/30 11:43:26;;;;;;;7.38;6.63;;;16.10;99.90;;;;;;4991666;28;20098;-75
2021/04/30 11:45:53;;;;;;;8.55;6.47;;;16.20;99.90;;;;;;4973171;28;20087;-76
2021/04/30 11:48:26;;;;;;;6.68;5.95;;;16.40;99.90;;;;;;5003481;28;20089;-76
2021/04/30 11:51:07;;;;;;;6.63;5.93;;;16.60;99.90;;;;;;4990052;28;20522;-75
2021/04/30 11:53:35;;;;;;;7.50;6.57;;;16.40;99.90;;;;;;4998706;28;20143;-75
2021/04/30 11:56:01;;;;;;;6.90;6.20;;;16.40;99.90;;;;;;4989754;28;20099;-76
2021/04/30 11:58:44;;;;;;;6.57;5.93;;;16.60;99.90;;;;;;4991565;28;20170;-77
2021/04/30 12:01:12;;;;;;;7.07;6.25;;;16.60;99.90;;;;;;4998484;28;20090;-76
2021/04/30 12:03:49;;;;;;;6.22;5.60;;;16.60;99.90;;;;;;4990309;28;20470;-76
2021/04/30 12:06:17;;;;;;;7.15;5.70;;;16.50;99.90;;;;;;4991064;28;20531;-77
2021/04/30 12:08:44;;;;;;;7.10;6.40;;;16.40;99.90;;;;;;4991258;28;20079;-75
2021/04/30 12:11:22;;;;;;;7.13;6.43;;;16.60;99.90;;;;;;5002421;28;20178;-76
2021/04/30 12:13:48;;;;;;;7.25;6.28;;;16.50;99.90;;;;;;5005277;28;20067;-75
2021/04/30 12:16:15;;;;;;;6.05;5.45;;;16.50;99.90;;;;;;5008274;28;20156;-76
2021/04/30 12:18:41;;;;;;;6.25;4.90;;;16.50;99.90;;;;;;4994842;28;20088;-76
2021/04/30 12:21:07;;;;;;;6.13;5.53;;;16.60;99.90;;;;;;4996056;28;20682;-76
2021/04/30 12:23:33;;;;;;;7.60;6.50;;;16.60;99.90;;;;;;4990839;28;20114;-75
2021/04/30 12:25:58;;;;;;;8.10;7.32;;;16.60;99.90;;;;;;4972683;28;20102;-75
2021/04/30 12:28:30;;;;;;;7.30;6.60;;;16.50;99.90;;;;;;4996429;28;20168;-76
2021/04/30 12:31:10;;;;;;;6.93;6.32;;;16.50;99.90;;;;;;5002894;28;20494;-75
2021/04/30 12:33:43;;;;;;;6.50;5.30;;;16.40;99.90;;;;;;4965622;28;20620;-75
2021/04/30 12:36:18;;;;;;;8.30;6.60;;;16.60;99.90;;;;;;5002185;28;20082;-76
2021/04/30 12:38:46;;;;;;;5.95;5.38;;;16.50;99.90;;;;;;4994460;28;20300;-76
2021/04/30 12:41:25;;;;;;;6.53;5.93;;;16.50;99.90;;;;;;4988940;28;20071;-75
2021/04/30 12:43:54;;;;;;;5.85;5.28;;;16.40;99.90;;;;;;4976768;28;20141;-75
2021/04/30 12:46:26;;;;;;;7.10;5.57;;;16.60;99.90;;;;;;4993106;28;20078;-76